Terminal Aerodrome Forecast
Issued by NWS

Home | Current Version | Previous Version | Graphics & Text | Print | Product List | Glossary On
Versions: 1 2 3 4 5 6 7 8 9 10 11 12 13 14 15 16 17 18 19 20 21 22 23
751
FTUS43 KICT 222325
TAFRSL
TAF
KRSL 222325Z 2300/2324 18005KT 2SM BR OVC005
     FM230600 02005KT 1SM BR BKN004
      TEMPO 2312/2315 1/2SM FG OVC003
     FM231500 01005KT 1SM BR BKN008 OVC010
     FM231700 04008KT P6SM SCT250=

USA.gov is the U.S. government's official web portal to all federal, state and local government web resources and services.